General Aviation Weather

Text Reports

Enter one or more of the following location identifiers separated by a space:

Zip Code, Four-Character ICAO or Three-Character IATA airport codes.

METAR - Aviation Routine Weather Report
KCCA - Clinton, Arkansas
Updated at 11:15 AM GMT on July 25, 2014 (6:15 AM CDT):
METAR KCCA 251115Z AUTO 00000KT 1/2SM FG OVC001 17/17 A3007 RMK AO2
TAF - Terminal Area Forecast
KCCA - Clinton, Arkansas
Updated at 11:15 AM GMT on July 25, 2014 (6:15 AM CDT):
No TAF is currently available for this location.
Decoded:
No decoded TAF is available.
PIREP - Pilot Weather Report
KCCA - Clinton, Arkansas
Updated at 11:15 AM GMT on July 25, 2014 (6:15 AM CDT):
No PIREP is currently available for this location.
AIRMET - Airmens Meteorological Information
KCCA - Clinton, Arkansas
Updated at 11:15 AM GMT on July 25, 2014 (6:15 AM CDT):
No AIRMET is currently available for this location.
SIGMET - Significant Meteorological Information
KCCA - Clinton, Arkansas
Updated at 11:15 AM GMT on July 25, 2014 (6:15 AM CDT):
No SIGMET is currently available for this location.
NOTAM - Notice to Airmen
KCCA - Clinton, Arkansas
Updated at 11:15 AM GMT on July 25, 2014 (6:15 AM CDT):
No NOTAM is currently available for this location.
Forecast Area
KCCA - Clinton, Arkansas
Updated at 11:15 AM GMT on July 25, 2014 (6:15 AM CDT):
No NOTAM is currently available for this location.
Aviation Weather Maps